Time;durP1;ratioP1;P1;durP2;ratioP2;P2;SDS_P1;SDS_P2;PMS_P1;PMS_P2;Temp;Humidity;BMP_temperature;BMP_pressure;BME280_temperature;BME280_humidity;BME280_pressure;Samples;Min_cycle;Max_cycle;Signal;HPM_P1;HPM_P2
2022/10/03 00:00:30;;;;;;;0.80;0.30;;;10.40;99.90;;;;;;5070278;28;20091;-71
2022/10/03 00:03:07;;;;;;;2.83;0.60;;;10.60;99.90;;;;;;5070150;28;20043;-71
2022/10/03 00:05:56;;;;;;;1.60;0.47;;;10.60;99.90;;;;;;5060808;28;20516;-71
2022/10/03 00:08:40;;;;;;;2.53;0.63;;;10.70;99.90;;;;;;5069630;28;20102;-71
2022/10/03 00:11:23;;;;;;;5.35;1.00;;;10.50;99.90;;;;;;5068978;28;20033;-72
2022/10/03 00:13:52;;;;;;;4.72;0.90;;;10.80;99.90;;;;;;5052067;28;20036;-72
2022/10/03 00:16:21;;;;;;;4.35;0.80;;;10.50;99.90;;;;;;5069752;28;20083;-72
2022/10/03 00:19:08;;;;;;;2.65;0.80;;;10.80;99.90;;;;;;5075149;28;20453;-72
2022/10/03 00:21:34;;;;;;;;;;;10.90;99.90;;;;;;5065228;28;20455;-71
2022/10/03 00:24:37;;;;;;;0.82;0.40;;;10.50;99.90;;;;;;5069504;28;19920;-72
2022/10/03 00:27:17;;;;;;;1.02;0.40;;;10.90;99.90;;;;;;5069845;28;20098;-71
2022/10/03 00:29:52;;;;;;;0.90;0.30;;;10.90;99.90;;;;;;5069283;28;20044;-72
2022/10/03 00:32:23;;;;;;;0.88;0.40;;;10.90;99.90;;;;;;5068986;28;20044;-72
2022/10/03 00:35:27;;;;;;;1.60;0.30;;;11.00;99.90;;;;;;5069601;28;20370;-72
2022/10/03 00:38:08;;;;;;;1.90;0.40;;;10.80;99.90;;;;;;5049812;28;20127;-71
2022/10/03 00:40:56;;;;;;;2.10;0.38;;;11.10;99.90;;;;;;5043262;28;20194;-72
2022/10/03 00:43:49;;;;;;;8.77;1.23;;;10.70;99.90;;;;;;5069267;28;20507;-72
2022/10/03 00:46:31;;;;;;;3.90;1.10;;;11.00;99.90;;;;;;5069114;28;20051;-71
2022/10/03 00:49:08;;;;;;;4.75;1.08;;;11.00;99.90;;;;;;5065728;28;20060;-71
2022/10/03 00:51:37;;;;;;;3.65;0.73;;;11.10;99.90;;;;;;5052223;28;20040;-71
2022/10/03 00:54:08;;;;;;;2.65;0.77;;;11.00;99.90;;;;;;5061797;28;20483;-72
2022/10/03 00:56:51;;;;;;;5.65;1.00;;;11.20;99.90;;;;;;5059607;28;20040;-71
2022/10/03 00:59:52;;;;;;;4.57;0.88;;;11.20;99.90;;;;;;5068757;28;20044;-71
2022/10/03 01:02:45;;;;;;;4.10;0.77;;;11.30;99.90;;;;;;5069153;28;20052;-71
2022/10/03 01:05:14;;;;;;;2.50;0.80;;;11.70;99.90;;;;;;5068408;28;20136;-71
2022/10/03 01:07:56;;;;;;;3.95;0.90;;;11.70;99.90;;;;;;5064885;28;20067;-71
2022/10/03 01:10:28;;;;;;;5.75;1.02;;;11.40;99.90;;;;;;5058307;28;20395;-71
2022/10/03 01:13:23;;;;;;;3.60;0.88;;;11.50;99.90;;;;;;5068592;28;20511;-71
2022/10/03 01:16:10;;;;;;;5.80;1.05;;;11.70;99.90;;;;;;5068952;28;20376;-71
2022/10/03 01:19:00;;;;;;;2.92;0.95;;;11.80;99.90;;;;;;5051836;28;20040;-71
2022/10/03 01:21:35;;;;;;;3.58;1.00;;;11.50;99.90;;;;;;5067420;28;20056;-72
2022/10/03 01:24:25;;;;;;;4.00;0.90;;;11.70;99.90;;;;;;5060117;28;20033;-71
2022/10/03 01:27:02;;;;;;;4.57;1.05;;;11.70;99.90;;;;;;5061671;28;20076;-71
2022/10/03 01:32:36;;;;;;;4.22;0.85;;;11.60;99.90;;;;;;5067019;28;20302;-72
2022/10/03 01:35:21;;;;;;;3.47;0.88;;;11.40;99.90;;;;;;5063022;28;20124;-71
2022/10/03 01:38:17;;;;;;;2.90;0.57;;;11.50;99.90;;;;;;5068235;28;20495;-71
2022/10/03 01:41:08;;;;;;;2.67;0.80;;;11.70;99.90;;;;;;5059856;28;20052;-71
2022/10/03 01:43:46;;;;;;;3.67;0.70;;;11.60;99.90;;;;;;5068407;28;20453;-72
2022/10/03 01:46:20;;;;;;;7.95;0.93;;;11.60;99.90;;;;;;5068461;28;20037;-72
2022/10/03 01:49:01;;;;;;;2.83;0.63;;;11.30;99.90;;;;;;5068280;28;20052;-72
2022/10/03 01:51:44;;;;;;;4.38;1.00;;;11.50;99.90;;;;;;5068235;28;20047;-72
2022/10/03 01:54:28;;;;;;;5.15;1.13;;;11.30;99.90;;;;;;5068489;28;20036;-72
2022/10/03 01:57:17;;;;;;;4.28;0.82;;;11.20;99.90;;;;;;5067702;28;20060;-72
2022/10/03 02:00:00;;;;;;;3.60;0.82;;;11.10;99.90;;;;;;5051297;28;20527;-72
2022/10/03 02:02:38;;;;;;;1.08;0.40;;;11.40;99.90;;;;;;5067187;28;20040;-71
2022/10/03 02:05:37;;;;;;;2.42;0.50;;;11.30;99.90;;;;;;5051498;28;20381;-72
2022/10/03 02:08:27;;;;;;;2.13;0.73;;;11.00;99.90;;;;;;5060851;28;20037;-71
2022/10/03 02:11:01;;;;;;;1.38;0.40;;;11.00;99.90;;;;;;5061557;28;20066;-72
2022/10/03 02:13:44;;;;;;;0.70;0.30;;;10.90;99.90;;;;;;5067211;28;20044;-72
2022/10/03 02:16:35;;;;;;;0.95;0.30;;;10.90;99.90;;;;;;5051622;28;20399;-72
2022/10/03 02:19:05;;;;;;;0.38;0.15;;;10.80;99.90;;;;;;5060495;28;20041;-72
2022/10/03 02:21:32;;;;;;;1.20;0.30;;;11.10;99.90;;;;;;5050159;28;20044;-71
2022/10/03 02:24:04;;;;;;;0.47;0.20;;;11.00;99.90;;;;;;5067849;28;20111;-72
2022/10/03 02:26:44;;;;;;;1.10;0.30;;;10.90;99.90;;;;;;5051425;28;20135;-72
2022/10/03 02:29:50;;;;;;;0.57;0.20;;;10.80;99.90;;;;;;5066816;28;20135;-71
2022/10/03 02:32:33;;;;;;;0.43;0.20;;;10.80;99.90;;;;;;5069819;28;20033;-72
2022/10/03 02:35:17;;;;;;;0.82;0.20;;;11.00;99.90;;;;;;5064917;28;20495;-72
2022/10/03 02:38:07;;;;;;;0.82;0.20;;;10.90;99.90;;;;;;5051106;28;20056;-72
2022/10/03 02:40:48;;;;;;;0.93;0.20;;;10.70;99.90;;;;;;5051336;28;20075;-71
2022/10/03 02:44:08;;;;;;;0.68;0.20;;;11.00;99.90;;;;;;5067731;28;20086;-72
2022/10/03 02:47:21;;;;;;;0.38;0.20;;;10.90;99.90;;;;;;5009348;28;20046;-72
2022/10/03 02:50:18;;;;;;;2.20;0.32;;;10.90;99.90;;;;;;4963621;28;20045;-72
2022/10/03 02:53:13;;;;;;;1.25;0.40;;;11.10;99.90;;;;;;5044276;28;20052;-72
2022/10/03 02:55:46;;;;;;;0.98;0.30;;;11.00;99.90;;;;;;5071463;28;20041;-72
2022/10/03 02:58:50;;;;;;;1.48;0.30;;;11.10;99.90;;;;;;5070524;28;20036;-72
2022/10/03 03:01:56;;;;;;;2.20;0.45;;;10.90;99.90;;;;;;5071076;28;20048;-71
2022/10/03 03:04:55;;;;;;;3.17;0.60;;;11.00;99.90;;;;;;5070372;28;20048;-72
2022/10/03 03:07:29;;;;;;;2.58;0.45;;;11.40;99.90;;;;;;5071269;28;20080;-71
2022/10/03 03:10:44;;;;;;;1.45;0.50;;;11.20;99.90;;;;;;5071070;28;20036;-72
2022/10/03 03:13:35;;;;;;;1.23;0.43;;;11.30;99.90;;;;;;5033357;28;20056;-72
2022/10/03 03:16:34;;;;;;;0.88;0.28;;;11.10;99.90;;;;;;5057623;28;20044;-72
2022/10/03 03:19:25;;;;;;;1.17;0.50;;;11.10;99.90;;;;;;5063608;28;20518;-72
2022/10/03 03:22:10;;;;;;;2.40;0.40;;;11.50;99.90;;;;;;5036489;28;20049;-72
2022/10/03 03:25:13;;;;;;;1.77;0.50;;;11.50;99.90;;;;;;5069267;28;20036;-72
2022/10/03 03:28:00;;;;;;;1.20;0.30;;;11.20;99.90;;;;;;5054120;28;20033;-72
2022/10/03 03:31:04;;;;;;;1.60;0.40;;;11.10;99.90;;;;;;5070975;28;20059;-72
2022/10/03 03:33:45;;;;;;;0.98;0.32;;;11.40;99.90;;;;;;5070505;28;20052;-72
2022/10/03 03:36:32;;;;;;;1.38;0.40;;;11.20;99.90;;;;;;5070963;28;20037;-72
2022/10/03 03:39:22;;;;;;;1.35;0.25;;;11.40;99.90;;;;;;5069654;28;20198;-71
2022/10/03 03:41:55;;;;;;;1.10;0.40;;;11.50;99.90;;;;;;5054015;28;20480;-72
2022/10/03 03:45:08;;;;;;;0.65;0.20;;;11.50;99.90;;;;;;5070453;28;20041;-72
2022/10/03 03:47:59;;;;;;;0.68;0.17;;;11.10;99.90;;;;;;5047860;28;20057;-72
2022/10/03 03:50:43;;;;;;;1.63;0.30;;;11.20;99.90;;;;;;5065882;28;20136;-72
2022/10/03 03:53:27;;;;;;;0.88;0.30;;;11.50;99.90;;;;;;5065769;28;20068;-72
2022/10/03 03:56:16;;;;;;;0.60;0.20;;;11.20;99.90;;;;;;5053171;28;20510;-72
2022/10/03 03:58:54;;;;;;;1.27;0.32;;;11.10;99.90;;;;;;5069892;28;20053;-72
2022/10/03 04:01:38;;;;;;;0.30;0.20;;;11.10;99.90;;;;;;5070005;28;20086;-72
2022/10/03 04:04:34;;;;;;;1.25;0.15;;;11.50;99.90;;;;;;5069877;28;20387;-71
2022/10/03 04:07:03;;;;;;;0.88;0.17;;;11.50;99.90;;;;;;5070223;28;20501;-71
2022/10/03 04:09:58;;;;;;;0.55;0.20;;;11.20;99.90;;;;;;5069900;28;20087;-71
2022/10/03 04:12:48;;;;;;;0.88;0.30;;;11.30;99.90;;;;;;5069273;28;20088;-72
2022/10/03 04:15:29;;;;;;;1.67;0.30;;;11.30;99.90;;;;;;5066377;28;20044;-71
2022/10/03 04:21:31;;;;;;;1.38;0.38;;;11.40;99.90;;;;;;5065098;28;20131;-72
2022/10/03 04:24:21;;;;;;;2.55;0.60;;;11.30;99.90;;;;;;5069488;28;20055;-71
2022/10/03 04:27:14;;;;;;;2.92;1.15;;;11.30;99.90;;;;;;5069835;28;20407;-72
2022/10/03 04:29:55;;;;;;;3.00;0.77;;;11.30;99.90;;;;;;5068930;28;20198;-71
2022/10/03 04:32:38;;;;;;;2.70;0.60;;;11.40;99.90;;;;;;5069786;28;20518;-72
2022/10/03 04:35:26;;;;;;;1.10;0.43;;;11.70;99.90;;;;;;5052848;28;20048;-72
2022/10/03 04:37:59;;;;;;;;;;;11.70;99.90;;;;;;5069748;28;20079;-71
2022/10/03 04:40:52;;;;;;;2.63;0.50;;;11.40;99.90;;;;;;5052610;28;20564;-71
2022/10/03 04:43:29;;;;;;;2.90;0.77;;;11.50;99.90;;;;;;5069217;28;20385;-71
2022/10/03 04:46:17;;;;;;;2.83;0.70;;;11.40;99.90;;;;;;5055548;28;20041;-72
2022/10/03 04:48:57;;;;;;;3.45;0.90;;;11.60;99.90;;;;;;5066668;28;20503;-71
2022/10/03 04:51:51;;;;;;;3.13;0.70;;;11.70;99.90;;;;;;5059827;28;20048;-71
2022/10/03 04:54:47;;;;;;;4.18;0.80;;;11.50;99.90;;;;;;5049607;28;20059;-78
2022/10/03 04:57:31;;;;;;;2.10;0.80;;;11.60;99.90;;;;;;5052990;28;20110;-78
2022/10/03 05:00:01;;;;;;;3.55;1.05;;;11.50;99.90;;;;;;5056657;28;20045;-78
2022/10/03 05:02:45;;;;;;;3.95;1.13;;;11.30;99.90;;;;;;5063175;28;20045;-79
2022/10/03 05:05:49;;;;;;;3.55;0.70;;;11.30;99.90;;;;;;5049883;28;20045;-78
2022/10/03 05:08:38;;;;;;;2.95;0.85;;;11.20;99.90;;;;;;5040719;28;20135;-79
2022/10/03 05:11:22;;;;;;;1.52;0.60;;;11.10;99.90;;;;;;5067826;28;20123;-78
2022/10/03 05:14:01;;;;;;;1.80;0.50;;;11.00;99.90;;;;;;5063129;28;20064;-79
2022/10/03 05:16:47;;;;;;;1.70;0.75;;;11.30;99.90;;;;;;5060198;28;20059;-78
2022/10/03 05:19:49;;;;;;;1.13;0.50;;;11.00;99.90;;;;;;5064460;28;20045;-78
2022/10/03 05:22:45;;;;;;;3.03;0.80;;;10.90;99.90;;;;;;5082392;28;20322;-78
2022/10/03 05:25:20;;;;;;;2.53;0.55;;;10.90;99.90;;;;;;5050779;28;20512;-78
2022/10/03 05:27:57;;;;;;;1.95;0.60;;;10.70;99.90;;;;;;5058461;28;20043;-78
2022/10/03 05:30:43;;;;;;;1.38;0.40;;;10.70;99.90;;;;;;5064296;28;20746;-78
2022/10/03 05:33:33;;;;;;;1.23;0.50;;;10.70;99.90;;;;;;5060353;28;20123;-78
2022/10/03 05:36:06;;;;;;;1.08;0.30;;;10.50;99.90;;;;;;5061612;28;20144;-78
2022/10/03 05:38:40;;;;;;;1.20;0.45;;;10.70;99.90;;;;;;5053496;28;20060;-78
2022/10/03 05:41:24;;;;;;;1.10;0.30;;;10.30;99.90;;;;;;5065394;28;20131;-78
2022/10/03 05:43:57;;;;;;;1.13;0.30;;;10.60;99.90;;;;;;5066960;28;20047;-78
2022/10/03 05:46:38;;;;;;;0.20;0.20;;;10.50;99.90;;;;;;5050007;28;20045;-78
2022/10/03 05:49:18;;;;;;;0.55;0.22;;;10.40;99.90;;;;;;5062705;28;20412;-79
2022/10/03 05:51:46;;;;;;;0.98;0.30;;;10.20;99.90;;;;;;5052656;28;20055;-78
2022/10/03 05:54:59;;;;;;;0.95;0.20;;;10.40;99.90;;;;;;5063785;28;20091;-79
2022/10/03 05:57:51;;;;;;;0.65;0.20;;;10.20;99.90;;;;;;5059172;28;20174;-78
2022/10/03 06:00:34;;;;;;;0.43;0.22;;;10.00;99.90;;;;;;5051635;28;20365;-78
2022/10/03 06:03:19;;;;;;;0.65;0.30;;;10.30;99.90;;;;;;5069194;28;20472;-77
2022/10/03 06:06:19;;;;;;;1.27;0.35;;;10.30;99.90;;;;;;5069457;28;20044;-78
2022/10/03 06:09:01;;;;;;;0.77;0.30;;;10.00;99.90;;;;;;5069227;28;20151;-78
2022/10/03 06:11:46;;;;;;;0.95;0.40;;;10.20;99.90;;;;;;5069565;28;20049;-77
2022/10/03 06:14:53;;;;;;;1.13;0.40;;;9.80;99.90;;;;;;5069074;28;20044;-78
2022/10/03 06:17:53;;;;;;;0.65;0.30;;;10.00;99.90;;;;;;5069185;28;20032;-77
2022/10/03 06:20:40;;;;;;;1.13;0.30;;;10.00;99.90;;;;;;5069036;28;20040;-77
2022/10/03 06:23:33;;;;;;;0.50;0.40;;;9.70;99.90;;;;;;5069054;28;20446;-78
2022/10/03 06:26:38;;;;;;;0.57;0.30;;;10.00;99.90;;;;;;5069064;28;20037;-77
2022/10/03 06:29:34;;;;;;;0.55;0.30;;;9.60;99.90;;;;;;5072831;28;20135;-78
2022/10/03 06:32:16;;;;;;;0.70;0.30;;;9.70;99.90;;;;;;5073013;28;20117;-78
2022/10/03 06:35:03;;;;;;;0.52;0.28;;;9.70;99.90;;;;;;5056303;28;20123;-78
2022/10/03 06:37:47;;;;;;;;;;;10.00;99.90;;;;;;5039311;28;20131;-78
2022/10/03 06:40:46;;;;;;;0.68;0.20;;;9.80;99.90;;;;;;5056182;28;19928;-78
2022/10/03 06:43:43;;;;;;;1.10;0.40;;;10.20;99.90;;;;;;5070232;28;20040;-78
2022/10/03 06:46:44;;;;;;;0.45;0.20;;;10.00;99.90;;;;;;5076282;28;20031;-78
2022/10/03 06:49:33;;;;;;;1.65;0.32;;;9.90;99.90;;;;;;5079430;28;20067;-78
2022/10/03 06:52:02;;;;;;;0.52;0.20;;;10.00;99.90;;;;;;5090294;28;20058;-78
2022/10/03 06:54:37;;;;;;;1.20;0.38;;;10.30;99.90;;;;;;5068323;28;20115;-78
2022/10/03 06:57:31;;;;;;;1.60;0.30;;;10.30;99.90;;;;;;5081701;28;20075;-78
2022/10/03 07:00:09;;;;;;;1.45;0.25;;;10.30;99.90;;;;;;5076867;28;20444;-78
2022/10/03 07:02:37;;;;;;;1.17;0.45;;;10.70;99.90;;;;;;5063900;28;20112;-78
2022/10/03 07:05:09;;;;;;;0.52;0.30;;;10.60;99.90;;;;;;5065832;28;20062;-79
2022/10/03 07:08:29;;;;;;;0.52;0.25;;;10.80;99.90;;;;;;5070005;28;20115;-80
2022/10/03 07:11:06;;;;;;;0.30;0.20;;;10.60;99.90;;;;;;5021528;28;20103;-71
2022/10/03 07:13:56;;;;;;;0.40;0.20;;;11.00;99.90;;;;;;5056184;28;20545;-71
2022/10/03 07:16:27;;;;;;;0.80;0.20;;;11.20;99.90;;;;;;5074560;28;20521;-71
2022/10/03 07:19:12;;;;;;;0.65;0.20;;;11.60;99.90;;;;;;5070504;28;20343;-71
2022/10/03 07:22:04;;;;;;;1.40;0.30;;;11.50;99.90;;;;;;5074100;28;20040;-70
2022/10/03 07:25:18;;;;;;;1.00;0.30;;;12.20;99.90;;;;;;5063869;28;20036;-71
2022/10/03 07:28:08;;;;;;;2.22;0.50;;;12.30;99.90;;;;;;5062402;28;20063;-71
2022/10/03 07:31:01;;;;;;;1.00;0.50;;;12.80;99.90;;;;;;5061085;28;20046;-71
2022/10/03 07:33:45;;;;;;;1.20;0.50;;;13.20;99.90;;;;;;5064327;28;20510;-71
2022/10/03 07:39:45;;;;;;;2.33;0.80;;;13.10;99.90;;;;;;5073597;28;20063;-71
2022/10/03 07:42:11;;;;;;;4.18;0.90;;;13.10;99.90;;;;;;5076255;28;20036;-71
2022/10/03 07:45:18;;;;;;;3.88;1.20;;;13.30;99.90;;;;;;5080354;28;20100;-71
2022/10/03 07:48:12;;;;;;;4.82;1.40;;;13.30;99.90;;;;;;5079410;28;20123;-71
2022/10/03 07:51:17;;;;;;;3.33;1.00;;;13.50;99.90;;;;;;5074510;28;20044;-71
2022/10/03 07:54:18;;;;;;;5.05;1.23;;;13.40;99.90;;;;;;5072164;28;20394;-71
2022/10/03 07:57:18;;;;;;;2.70;0.70;;;13.50;99.90;;;;;;5022319;28;20059;-71
2022/10/03 08:00:15;;;;;;;2.25;0.60;;;13.70;99.90;;;;;;5042290;28;20049;-71
2022/10/03 08:02:44;;;;;;;2.55;0.80;;;13.70;99.90;;;;;;5067067;28;20806;-71
2022/10/03 08:05:35;;;;;;;4.75;1.02;;;13.70;99.90;;;;;;5064409;28;20078;-71
2022/10/03 08:08:23;;;;;;;3.78;0.93;;;13.80;99.90;;;;;;5046794;28;20036;-71
2022/10/03 08:11:07;;;;;;;3.15;0.80;;;13.80;99.90;;;;;;5072429;28;20097;-71
2022/10/03 08:13:57;;;;;;;3.97;0.95;;;14.00;99.90;;;;;;5060810;28;20041;-71
2022/10/03 08:16:42;;;;;;;3.05;1.00;;;14.10;99.90;;;;;;5056655;28;20042;-71
2022/10/03 08:19:34;;;;;;;3.10;0.90;;;14.10;99.90;;;;;;5071082;28;20554;-71
2022/10/03 08:22:24;;;;;;;3.72;0.73;;;14.20;99.90;;;;;;5043149;28;20056;-71
2022/10/03 08:25:28;;;;;;;4.05;0.82;;;14.20;99.90;;;;;;5047327;28;20040;-75
2022/10/03 08:28:25;;;;;;;2.55;0.80;;;14.30;99.90;;;;;;5072867;28;20054;-72
2022/10/03 08:31:29;;;;;;;4.50;0.80;;;14.30;99.90;;;;;;5073880;28;20136;-72
2022/10/03 08:34:21;;;;;;;4.50;0.88;;;14.40;99.90;;;;;;5073895;28;20063;-72
2022/10/03 08:37:14;;;;;;;3.85;0.90;;;14.40;99.90;;;;;;5057252;28;20116;-72
2022/10/03 08:40:19;;;;;;;3.65;0.73;;;14.50;99.90;;;;;;5050345;28;20126;-72
2022/10/03 08:43:06;;;;;;;3.80;0.82;;;14.60;99.90;;;;;;5050215;28;20049;-72
2022/10/03 08:45:32;;;;;;;;;;;14.60;99.90;;;;;;5051209;28;20615;-72
2022/10/03 08:48:35;;;;;;;6.18;1.10;;;14.60;99.90;;;;;;5050358;28;19971;-72
2022/10/03 08:51:15;;;;;;;5.07;1.13;;;14.70;99.90;;;;;;5033574;28;20094;-72
2022/10/03 08:54:13;;;;;;;3.70;0.95;;;14.60;99.90;;;;;;5050049;28;20120;-72
2022/10/03 08:56:53;;;;;;;3.08;0.70;;;14.80;99.90;;;;;;5050034;28;20127;-71
2022/10/03 08:59:42;;;;;;;4.28;1.00;;;14.80;99.90;;;;;;5049584;28;20048;-72
2022/10/03 09:02:46;;;;;;;2.85;0.82;;;14.90;99.90;;;;;;5049912;28;20052;-72
2022/10/03 09:05:39;;;;;;;2.97;0.68;;;15.00;99.90;;;;;;5049190;28;20467;-72
2022/10/03 09:08:44;;;;;;;2.97;0.90;;;15.00;99.90;;;;;;5032744;28;20037;-72
2022/10/03 09:11:23;;;;;;;5.20;0.98;;;15.10;99.90;;;;;;5032224;28;20052;-72
2022/10/03 09:14:14;;;;;;;3.75;0.90;;;15.20;99.90;;;;;;5049441;28;20073;-72
2022/10/03 09:17:06;;;;;;;5.85;1.20;;;15.20;99.90;;;;;;5036436;28;20099;-72
2022/10/03 09:19:58;;;;;;;3.20;0.70;;;15.20;99.90;;;;;;5029751;28;20088;-72
2022/10/03 09:22:58;;;;;;;2.42;0.70;;;15.30;99.90;;;;;;5022594;28;20128;-72
2022/10/03 09:25:54;;;;;;;3.72;0.90;;;15.30;99.90;;;;;;5038666;28;20043;-72
2022/10/03 09:28:38;;;;;;;2.22;0.70;;;15.30;99.90;;;;;;5046380;28;20041;-72
2022/10/03 09:31:16;;;;;;;2.75;0.60;;;15.40;99.90;;;;;;5040539;28;20476;-72
2022/10/03 09:34:12;;;;;;;2.45;0.73;;;15.40;99.90;;;;;;5045221;28;20045;-72
2022/10/03 09:37:07;;;;;;;4.57;0.90;;;15.50;99.90;;;;;;5049009;28;20081;-72
2022/10/03 09:40:10;;;;;;;2.85;0.70;;;15.60;99.90;;;;;;5068495;28;20117;-72
2022/10/03 09:43:00;;;;;;;3.88;0.80;;;15.60;99.90;;;;;;5069015;28;20098;-72
2022/10/03 09:45:55;;;;;;;3.83;0.80;;;15.70;99.90;;;;;;5069032;28;20476;-72
2022/10/03 09:48:58;;;;;;;3.63;0.80;;;15.70;99.90;;;;;;5038334;28;20041;-72
2022/10/03 09:51:38;;;;;;;3.53;1.02;;;15.70;99.90;;;;;;5069113;28;20462;-72
2022/10/03 09:54:41;;;;;;;4.03;0.88;;;15.80;99.90;;;;;;5052232;28;20044;-72
2022/10/03 09:57:29;;;;;;;4.65;0.80;;;15.80;99.90;;;;;;5069012;28;20154;-72
2022/10/03 10:00:14;;;;;;;5.22;0.82;;;15.90;99.90;;;;;;5068957;28;20070;-72
2022/10/03 10:03:17;;;;;;;6.28;1.02;;;15.80;99.90;;;;;;5068171;28;20182;-72
2022/10/03 10:05:52;;;;;;;2.45;0.70;;;15.90;99.90;;;;;;5069046;28;20052;-72
2022/10/03 10:08:36;;;;;;;3.28;0.88;;;16.00;99.90;;;;;;5069108;28;20106;-72
2022/10/03 10:11:16;;;;;;;3.10;0.77;;;16.10;99.90;;;;;;5054105;28;20036;-72
2022/10/03 10:14:07;;;;;;;3.90;0.70;;;16.20;99.90;;;;;;5048863;28;20041;-72
2022/10/03 10:17:07;;;;;;;4.63;0.85;;;16.20;99.90;;;;;;5048549;28;20047;-72
2022/10/03 10:19:54;;;;;;;3.33;0.93;;;16.30;99.90;;;;;;5016960;28;20064;-72
2022/10/03 10:22:41;;;;;;;2.70;0.80;;;16.40;99.90;;;;;;5048867;28;20045;-72
2022/10/03 10:25:26;;;;;;;;;;;16.50;99.90;;;;;;5049172;28;20099;-72
2022/10/03 10:28:34;;;;;;;4.20;1.00;;;16.50;99.90;;;;;;5048758;28;20380;-72
2022/10/03 10:31:31;;;;;;;3.17;0.77;;;16.70;99.90;;;;;;5038001;28;20049;-72
2022/10/03 10:34:35;;;;;;;3.13;0.65;;;16.90;99.90;;;;;;5021310;28;20049;-72
2022/10/03 10:37:25;;;;;;;1.52;0.60;;;16.90;99.90;;;;;;5048617;28;20448;-72
2022/10/03 10:40:31;;;;;;;2.50;0.70;;;17.00;99.90;;;;;;5048353;28;20049;-72
2022/10/03 10:43:28;;;;;;;2.30;0.60;;;17.10;99.90;;;;;;5031896;28;20472;-72
2022/10/03 10:46:06;;;;;;;5.53;0.90;;;17.30;99.90;;;;;;5031999;28;20097;-72
2022/10/03 10:48:54;;;;;;;3.28;0.60;;;17.20;99.90;;;;;;5048428;28;20415;-72
2022/10/03 10:51:50;;;;;;;2.25;0.70;;;17.30;99.90;;;;;;5048535;28;20037;-72
2022/10/03 10:54:22;;;;;;;2.78;0.60;;;17.30;99.90;;;;;;5061696;28;20104;-72
2022/10/03 10:57:25;;;;;;;1.58;0.50;;;17.40;99.90;;;;;;5068416;28;20054;-72
2022/10/03 11:00:04;;;;;;;3.72;0.80;;;17.50;99.90;;;;;;5051503;28;20040;-72
2022/10/03 11:02:59;;;;;;;2.25;0.73;;;17.30;99.90;;;;;;5068415;28;20040;-73
2022/10/03 11:05:46;;;;;;;2.35;0.68;;;17.40;99.90;;;;;;5051243;28;20121;-72
2022/10/03 11:08:34;;;;;;;3.10;0.80;;;17.40;99.90;;;;;;5048575;28;20045;-72
2022/10/03 11:11:05;;;;;;;4.85;0.90;;;17.40;99.90;;;;;;5048608;28;20357;-73
2022/10/03 11:13:46;;;;;;;3.28;0.80;;;17.50;99.90;;;;;;5048474;28;20434;-73
2022/10/03 11:16:15;;;;;;;2.70;0.70;;;17.50;99.90;;;;;;5051925;28;20433;-73
2022/10/03 11:19:04;;;;;;;2.40;0.70;;;17.60;99.90;;;;;;5051753;28;20056;-73
2022/10/03 11:21:53;;;;;;;4.93;0.80;;;17.80;99.90;;;;;;5051809;28;20057;-73
2022/10/03 11:24:47;;;;;;;3.30;0.80;;;17.70;99.90;;;;;;5051071;28;20060;-73
2022/10/03 11:27:46;;;;;;;1.85;0.63;;;17.40;99.90;;;;;;5051693;28;20041;-73
2022/10/03 11:30:39;;;;;;;2.35;0.50;;;17.40;99.90;;;;;;5051498;28;20033;-73
2022/10/03 11:33:42;;;;;;;3.03;0.70;;;17.40;99.90;;;;;;5051439;28;20436;-73
2022/10/03 11:36:38;;;;;;;2.83;0.70;;;17.30;99.90;;;;;;5051465;28;20578;-73
2022/10/03 11:39:10;;;;;;;2.53;0.60;;;17.30;99.90;;;;;;5050990;28;20060;-73
2022/10/03 11:41:54;;;;;;;2.13;0.80;;;17.20;99.90;;;;;;5051559;28;20048;-73
2022/10/03 11:44:30;;;;;;;1.45;0.52;;;17.30;99.90;;;;;;5071070;28;20040;-73
2022/10/03 11:46:58;;;;;;;2.00;0.50;;;17.40;99.90;;;;;;5071160;28;20072;-73
2022/10/03 11:50:02;;;;;;;2.80;0.70;;;17.50;99.90;;;;;;5071288;28;20052;-73
2022/10/03 11:52:41;;;;;;;3.25;0.60;;;17.40;99.90;;;;;;5023975;28;20065;-73
2022/10/03 11:55:28;;;;;;;3.08;0.65;;;17.50;99.90;;;;;;5071373;28;20529;-73
2022/10/03 11:58:12;;;;;;;;;;;17.60;99.90;;;;;;5067453;28;20044;-73
2022/10/03 12:00:41;;;;;;;2.78;0.60;;;17.50;99.90;;;;;;5050924;28;19977;-73
2022/10/03 12:03:13;;;;;;;1.95;0.68;;;17.50;99.90;;;;;;5051004;28;20124;-73
2022/10/03 12:09:14;;;;;;;2.05;0.60;;;17.80;99.90;;;;;;5050733;28;20511;-73
2022/10/03 12:12:08;;;;;;;3.63;0.75;;;17.80;99.90;;;;;;5034585;28;20041;-73
2022/10/03 12:14:43;;;;;;;3.33;0.80;;;17.90;99.90;;;;;;5051123;28;20041;-73
2022/10/03 12:17:17;;;;;;;1.98;0.60;;;17.90;99.90;;;;;;5051235;28;20095;-73
2022/10/03 12:20:14;;;;;;;3.13;0.70;;;18.10;99.90;;;;;;5050599;28;20515;-73
2022/10/03 12:23:00;;;;;;;4.53;0.88;;;17.90;99.90;;;;;;5050623;28;20066;-73
2022/10/03 12:25:37;;;;;;;1.40;0.50;;;17.70;99.90;;;;;;5050478;28;20041;-73
2022/10/03 12:28:25;;;;;;;1.67;0.60;;;17.80;99.90;;;;;;5050521;28;20044;-73
2022/10/03 12:31:11;;;;;;;1.67;0.40;;;17.60;99.90;;;;;;5050607;28;20469;-73
2022/10/03 12:34:15;;;;;;;2.95;0.60;;;17.30;99.90;;;;;;5067660;28;20147;-73
2022/10/03 12:37:19;;;;;;;2.33;0.60;;;17.20;99.90;;;;;;5053623;28;20079;-73
2022/10/03 12:39:50;;;;;;;1.85;0.50;;;17.20;99.90;;;;;;5012528;28;20083;-73
2022/10/03 12:42:25;;;;;;;2.05;0.43;;;17.40;99.90;;;;;;5060519;28;20074;-73
2022/10/03 12:44:59;;;;;;;2.33;0.68;;;17.70;99.90;;;;;;5053822;28;20032;-73
2022/10/03 12:47:34;;;;;;;1.50;0.60;;;17.70;99.90;;;;;;5070485;28;20076;-73
2022/10/03 12:50:21;;;;;;;2.20;0.50;;;18.00;99.90;;;;;;5070156;28;20395;-73
2022/10/03 12:53:15;;;;;;;3.35;0.85;;;18.10;99.90;;;;;;5060091;28;20051;-73
2022/10/03 12:56:06;;;;;;;3.65;0.82;;;17.90;99.90;;;;;;5050454;28;20075;-73
2022/10/03 12:58:45;;;;;;;3.75;0.80;;;17.80;99.90;;;;;;5039159;28;20056;-73
2022/10/03 13:01:25;;;;;;;1.35;0.52;;;17.60;99.90;;;;;;5050253;28;20049;-73
2022/10/03 13:03:53;;;;;;;2.65;0.50;;;17.80;99.90;;;;;;5033587;28;20048;-73
2022/10/03 13:06:41;;;;;;;2.10;0.80;;;17.80;99.90;;;;;;5033685;28;20393;-73
2022/10/03 13:09:29;;;;;;;3.25;0.63;;;17.60;99.90;;;;;;5056856;28;20044;-73
2022/10/03 13:12:15;;;;;;;1.88;0.60;;;17.50;99.90;;;;;;5053479;28;20037;-73
2022/10/03 13:15:23;;;;;;;2.83;0.47;;;17.50;99.90;;;;;;5069912;28;20106;-73
2022/10/03 13:17:56;;;;;;;3.15;0.70;;;17.70;99.90;;;;;;5041678;28;20135;-73
2022/10/03 13:20:29;;;;;;;2.42;0.50;;;17.90;99.90;;;;;;5053193;28;20453;-73
2022/10/03 13:23:19;;;;;;;2.17;0.50;;;18.00;99.90;;;;;;5069629;28;20044;-73
2022/10/03 13:26:19;;;;;;;4.03;0.93;;;18.00;99.90;;;;;;5069763;28;20079;-73
2022/10/03 13:29:13;;;;;;;3.88;0.65;;;17.70;99.90;;;;;;5052989;28;20111;-73
2022/10/03 13:32:11;;;;;;;4.10;0.70;;;17.60;99.90;;;;;;5069657;28;20491;-73
2022/10/03 13:34:43;;;;;;;;;;;17.40;99.90;;;;;;5057965;28;20053;-73
2022/10/03 13:37:20;;;;;;;3.03;0.80;;;17.40;99.90;;;;;;5068667;28;19924;-73
2022/10/03 13:39:48;;;;;;;1.88;0.60;;;17.20;99.90;;;;;;5069201;28;20114;-73
2022/10/03 13:42:37;;;;;;;3.30;0.50;;;17.30;99.90;;;;;;5069271;28;20041;-73
2022/10/03 13:45:13;;;;;;;3.95;0.80;;;17.40;99.90;;;;;;5069360;28;20109;-73
2022/10/03 13:47:45;;;;;;;2.08;0.60;;;17.50;99.90;;;;;;5069389;28;20040;-73
2022/10/03 13:50:29;;;;;;;2.92;0.70;;;17.60;99.90;;;;;;5052693;28;20056;-73
2022/10/03 13:53:30;;;;;;;3.85;0.65;;;17.70;99.90;;;;;;5069514;28;20047;-73
2022/10/03 13:56:04;;;;;;;3.67;0.90;;;17.70;99.90;;;;;;5039354;28;20143;-73
2022/10/03 13:58:37;;;;;;;3.08;0.60;;;17.50;99.90;;;;;;5069007;28;20577;-73
2022/10/03 14:01:03;;;;;;;1.50;0.55;;;17.40;99.90;;;;;;5069092;28;20055;-73
2022/10/03 14:03:29;;;;;;;;;;;17.50;99.90;;;;;;5069297;28;20044;-73
2022/10/03 14:06:14;;;;;;;1.57;0.60;;;17.50;99.90;;;;;;5069312;28;19942;-73
2022/10/03 14:09:09;;;;;;;2.58;0.68;;;17.50;99.90;;;;;;5069085;28;20286;-73
2022/10/03 14:11:43;;;;;;;2.08;0.63;;;17.50;99.90;;;;;;5052393;28;20040;-73
2022/10/03 14:14:40;;;;;;;1.80;0.50;;;17.50;99.90;;;;;;5069185;28;20114;-73
2022/10/03 14:17:12;;;;;;;;;;;17.30;99.90;;;;;;5069256;28;20044;-73
2022/10/03 14:19:42;;;;;;;1.50;0.60;;;17.40;99.90;;;;;;5068567;28;19921;-73
2022/10/03 14:22:33;;;;;;;1.77;0.50;;;17.40;99.90;;;;;;5068809;28;20048;-73
2022/10/03 14:25:07;;;;;;;1.25;0.38;;;17.30;99.90;;;;;;5068936;28;20071;-73
2022/10/03 14:28:04;;;;;;;0.93;0.40;;;17.30;99.90;;;;;;5068806;28;20037;-73
2022/10/03 14:30:50;;;;;;;1.67;0.50;;;17.30;99.90;;;;;;5068923;28;20047;-73
2022/10/03 14:33:25;;;;;;;2.78;0.60;;;17.20;99.90;;;;;;5052420;28;20566;-73
2022/10/03 14:36:00;;;;;;;2.20;0.50;;;17.20;99.90;;;;;;5068573;28;20048;-73
2022/10/03 14:41:24;;;;;;;1.33;0.28;;;17.10;99.90;;;;;;5068852;28;20049;-73
2022/10/03 14:44:02;;;;;;;2.67;0.60;;;17.10;99.90;;;;;;5068958;28;20102;-73
2022/10/03 14:46:32;;;;;;;1.80;0.43;;;17.10;99.90;;;;;;5068616;28;20106;-73